createdAt,value
2018-01-11T00:00:38.064Z,22.50
2018-01-11T00:03:06.233Z,18.60
2018-01-11T00:05:34.375Z,17.10
2018-01-11T00:08:03.288Z,15.43
2018-01-11T00:10:32.229Z,19.80
2018-01-11T00:13:00.365Z,13.50
2018-01-11T00:15:29.277Z,15.73
2018-01-11T00:17:57.426Z,11.90
2018-01-11T00:20:25.572Z,13.40
2018-01-11T00:22:53.711Z,17.60
2018-01-11T00:25:22.630Z,28.13
2018-01-11T00:27:51.530Z,27.07
2018-01-11T00:30:20.441Z,26.13
2018-01-11T00:32:49.333Z,23.50
2018-01-11T00:35:18.253Z,25.20
2018-01-11T00:37:47.132Z,24.40
2018-01-11T00:40:15.308Z,26.80
2018-01-11T00:42:43.433Z,20.97
2018-01-11T00:45:11.552Z,19.33
2018-01-11T00:47:39.720Z,17.90
2018-01-11T00:50:07.857Z,18.83
2018-01-11T00:52:36.009Z,19.80
2018-01-11T00:55:04.149Z,17.97
2018-01-11T00:57:33.055Z,18.23
2018-01-11T01:00:01.986Z,17.00
2018-01-11T01:02:30.126Z,18.93
2018-01-11T01:04:58.279Z,14.37
2018-01-11T01:07:26.421Z,15.13
2018-01-11T01:09:55.332Z,17.97
2018-01-11T01:12:24.251Z,12.70
2018-01-11T01:14:52.409Z,15.47
2018-01-11T01:17:21.325Z,11.97
2018-01-11T01:19:49.461Z,14.50
2018-01-11T01:22:17.595Z,13.40
2018-01-11T01:24:45.733Z,12.83
2018-01-11T01:27:14.645Z,17.73
2018-01-11T01:29:42.785Z,18.80
2018-01-11T01:32:10.937Z,15.13
2018-01-11T01:34:39.064Z,13.17
2018-01-11T01:37:07.184Z,16.30
2018-01-11T01:39:35.327Z,13.27
2018-01-11T01:42:03.457Z,11.60
2018-01-11T01:44:31.604Z,12.70
2018-01-11T01:46:59.720Z,18.17
2018-01-11T01:49:27.873Z,14.47
2018-01-11T01:51:56.001Z,21.60
2018-01-11T01:54:24.140Z,20.30
2018-01-11T01:56:52.268Z,17.13
2018-01-11T01:59:20.414Z,22.37
2018-01-11T02:01:48.559Z,20.10
2018-01-11T02:04:16.695Z,19.47
2018-01-11T02:06:44.840Z,20.73
2018-01-11T02:09:13.736Z,22.50
2018-01-11T02:11:43.786Z,25.30
2018-01-11T02:14:11.913Z,28.63
2018-01-11T02:16:40.142Z,21.10
2018-01-11T02:19:08.270Z,24.73
2018-01-11T02:21:36.415Z,25.40
2018-01-11T02:24:05.304Z,25.43
2018-01-11T02:26:33.456Z,17.47
2018-01-11T02:29:02.360Z,17.40
2018-01-11T02:31:30.502Z,18.13
2018-01-11T02:33:59.399Z,26.43
2018-01-11T02:36:28.309Z,21.13
2018-01-11T02:38:57.260Z,19.67
2018-01-11T02:41:25.393Z,22.80
2018-01-11T02:43:54.291Z,18.70
2018-01-11T02:46:23.194Z,16.43
2018-01-11T02:48:51.353Z,17.60
2018-01-11T02:51:20.244Z,11.30
2018-01-11T02:53:48.382Z,19.53
2018-01-11T02:56:17.288Z,16.37
2018-01-11T02:58:45.424Z,17.33
2018-01-11T03:01:13.560Z,15.53
2018-01-11T03:03:41.702Z,17.03
2018-01-11T03:06:09.848Z,21.13
2018-01-11T03:08:37.991Z,19.37
2018-01-11T03:11:06.136Z,22.57
2018-01-11T03:13:34.284Z,20.20
2018-01-11T03:16:03.770Z,24.57
2018-01-11T03:18:31.922Z,23.53
2018-01-11T03:21:00.049Z,21.70
2018-01-11T03:23:28.217Z,24.40
2018-01-11T03:25:56.350Z,28.10
2018-01-11T03:28:25.259Z,20.47
2018-01-11T03:30:53.392Z,18.83
2018-01-11T03:33:21.532Z,18.37
2018-01-11T03:35:50.430Z,15.47
2018-01-11T03:38:19.341Z,28.00
2018-01-11T03:40:47.484Z,24.53
2018-01-11T03:43:15.613Z,25.23
2018-01-11T03:45:43.766Z,17.63
2018-01-11T03:48:11.905Z,16.43
2018-01-11T03:50:40.033Z,15.70
2018-01-11T03:53:08.181Z,14.67
2018-01-11T03:55:36.305Z,12.20
2018-01-11T03:58:04.445Z,14.60
2018-01-11T04:00:32.588Z,14.87
2018-01-11T04:03:00.711Z,16.53
2018-01-11T04:05:28.836Z,13.03
2018-01-11T04:07:56.986Z,16.40
2018-01-11T04:10:25.888Z,14.57
2018-01-11T04:12:54.047Z,15.80
2018-01-11T04:15:22.937Z,15.47
2018-01-11T04:17:51.838Z,16.50
2018-01-11T04:20:19.984Z,15.17
2018-01-11T04:22:48.111Z,18.13
2018-01-11T04:25:17.007Z,16.20
2018-01-11T04:27:45.152Z,16.50
2018-01-11T04:30:13.308Z,15.23
2018-01-11T04:32:42.193Z,14.13
2018-01-11T04:35:11.102Z,19.07
2018-01-11T04:37:39.996Z,12.50
2018-01-11T04:40:08.136Z,18.07
2018-01-11T04:42:37.151Z,19.37
2018-01-11T04:45:06.078Z,17.43
2018-01-11T04:47:34.234Z,16.17
2018-01-11T04:50:02.356Z,19.23
2018-01-11T04:52:30.512Z,16.83
2018-01-11T04:54:58.628Z,19.97
2018-01-11T04:57:26.822Z,19.93
2018-01-11T04:59:55.100Z,15.20
2018-01-11T05:02:23.237Z,17.23
2018-01-11T05:04:51.373Z,19.67
2018-01-11T05:07:19.519Z,13.87
2018-01-11T05:09:47.644Z,13.60
2018-01-11T05:12:15.780Z,16.97
2018-01-11T05:14:43.952Z,15.33
2018-01-11T05:17:12.084Z,14.67
2018-01-11T05:19:40.228Z,14.50
2018-01-11T05:22:08.373Z,17.40
2018-01-11T05:24:36.497Z,17.13
2018-01-11T05:27:04.636Z,17.13
2018-01-11T05:29:32.788Z,20.00
2018-01-11T05:32:00.924Z,18.30
2018-01-11T05:34:29.067Z,21.70
2018-01-11T05:36:57.184Z,16.47
2018-01-11T05:39:26.851Z,15.83
2018-01-11T05:41:54.967Z,16.10
2018-01-11T05:44:23.116Z,16.77
2018-01-11T05:46:51.252Z,16.73
2018-01-11T05:49:19.410Z,15.83
2018-01-11T05:51:47.559Z,15.03
2018-01-11T05:54:16.462Z,13.37
2018-01-11T05:56:44.584Z,16.47
2018-01-11T05:59:12.714Z,15.43
2018-01-11T06:01:40.865Z,20.93
2018-01-11T06:04:08.988Z,13.50
2018-01-11T06:06:37.137Z,16.67
2018-01-11T06:09:05.269Z,15.70
2018-01-11T06:11:34.176Z,13.30
2018-01-11T06:14:03.073Z,20.47
2018-01-11T06:16:31.989Z,13.90
2018-01-11T06:19:00.882Z,15.37
2018-01-11T06:21:29.800Z,16.10
2018-01-11T06:23:58.699Z,21.13
2018-01-11T06:26:27.658Z,19.47
2018-01-11T06:28:55.797Z,14.87
2018-01-11T06:31:24.699Z,18.63
2018-01-11T06:33:53.609Z,20.43
2018-01-11T06:36:21.753Z,18.60
2018-01-11T06:38:49.921Z,15.33
2018-01-11T06:41:18.073Z,20.30
2018-01-11T06:43:46.199Z,21.30
2018-01-11T06:46:14.353Z,14.70
2018-01-11T06:48:42.488Z,14.77
2018-01-11T06:51:10.628Z,14.53
2018-01-11T06:53:38.821Z,13.37
2018-01-11T06:56:07.690Z,13.70
2018-01-11T06:58:36.597Z,16.27
2018-01-11T07:01:05.508Z,14.80
2018-01-11T07:03:33.644Z,32.07
2018-01-11T07:06:01.766Z,29.37
2018-01-11T07:08:30.694Z,22.33
2018-01-11T07:10:58.815Z,22.87
2018-01-11T07:13:26.957Z,15.97
2018-01-11T07:15:55.080Z,15.90
2018-01-11T07:18:23.232Z,21.30
2018-01-11T07:20:52.156Z,26.30
2018-01-11T07:23:20.314Z,19.23
2018-01-11T07:25:49.216Z,20.50
2018-01-11T07:28:18.108Z,19.13
2018-01-11T07:30:47.008Z,18.83
2018-01-11T07:33:15.928Z,19.40
2018-01-11T07:35:44.059Z,22.33
2018-01-11T07:38:12.222Z,20.13
2018-01-11T07:40:40.337Z,21.23
2018-01-11T07:43:08.486Z,17.80
2018-01-11T07:45:36.618Z,18.47
2018-01-11T07:48:04.754Z,18.73
2018-01-11T07:50:32.917Z,30.57
2018-01-11T07:53:01.830Z,37.70
2018-01-11T07:55:30.767Z,57.93
2018-01-11T07:57:58.909Z,38.07
2018-01-11T08:00:27.824Z,29.40
2018-01-11T08:02:56.749Z,19.00
2018-01-11T08:05:24.888Z,21.53
2018-01-11T08:07:53.012Z,15.30
2018-01-11T08:10:21.157Z,21.73
2018-01-11T08:12:49.329Z,21.90
2018-01-11T08:15:17.457Z,20.80
2018-01-11T08:17:45.592Z,21.77
2018-01-11T08:20:13.762Z,17.20
2018-01-11T08:22:41.914Z,15.93
2018-01-11T08:25:10.836Z,17.60
2018-01-11T08:27:38.975Z,21.80
2018-01-11T08:30:07.107Z,16.67
2018-01-11T08:32:35.301Z,14.67
2018-01-11T08:35:03.440Z,17.33
2018-01-11T08:37:32.394Z,15.40
2018-01-11T08:40:00.528Z,20.23
2018-01-11T08:42:28.672Z,14.50
2018-01-11T08:44:56.808Z,17.83
2018-01-11T08:47:25.709Z,13.40
2018-01-11T08:49:53.845Z,18.60
2018-01-11T08:52:21.977Z,13.97
2018-01-11T08:54:50.900Z,16.90
2018-01-11T08:57:19.802Z,15.73
2018-01-11T08:59:48.707Z,16.90
2018-01-11T09:02:17.617Z,18.13
2018-01-11T09:04:45.776Z,19.17
2018-01-11T09:07:13.916Z,27.07
2018-01-11T09:09:42.063Z,21.87
2018-01-11T09:12:10.970Z,19.63
2018-01-11T09:14:39.881Z,19.03
2018-01-11T09:17:08.784Z,22.00
2018-01-11T09:19:37.680Z,18.10
2018-01-11T09:22:05.832Z,16.63
2018-01-11T09:24:33.978Z,20.90
2018-01-11T09:27:02.126Z,18.47
2018-01-11T09:29:30.292Z,25.60
2018-01-11T09:31:58.410Z,28.60
2018-01-11T09:34:27.308Z,19.73
2018-01-11T09:36:55.459Z,16.57
2018-01-11T09:39:23.599Z,18.13
2018-01-11T09:41:51.827Z,22.30
2018-01-11T09:44:19.941Z,17.40
2018-01-11T09:46:48.905Z,23.77
2018-01-11T09:49:17.052Z,20.83
2018-01-11T09:51:45.944Z,18.43
2018-01-11T09:54:14.844Z,17.50
2018-01-11T09:56:43.746Z,29.50
2018-01-11T09:59:12.660Z,19.40
2018-01-11T10:01:41.548Z,20.70
2018-01-11T10:04:09.703Z,19.83
2018-01-11T10:06:37.843Z,16.13
2018-01-11T10:09:06.751Z,19.20
2018-01-11T10:11:34.908Z,17.87
2018-01-11T10:14:03.096Z,22.93
2018-01-11T10:16:31.241Z,23.13
2018-01-11T10:18:59.389Z,34.87
2018-01-11T10:21:28.341Z,24.60
2018-01-11T10:23:57.269Z,26.47
2018-01-11T10:26:25.398Z,24.37
2018-01-11T10:28:53.585Z,29.87
2018-01-11T10:31:22.465Z,25.10
2018-01-11T10:33:51.372Z,28.83
2018-01-11T10:36:20.306Z,26.57
2018-01-11T10:38:48.453Z,22.00
2018-01-11T10:41:17.366Z,91.63
2018-01-11T10:43:45.521Z,54.53
2018-01-11T10:46:13.673Z,24.10
2018-01-11T10:48:41.836Z,25.30
2018-01-11T10:51:10.017Z,52.90
2018-01-11T10:53:38.934Z,171.10
2018-01-11T10:56:07.829Z,33.10
2018-01-11T10:58:35.972Z,102.87
2018-01-11T11:01:09.737Z,84.67
2018-01-11T11:03:37.873Z,79.27
2018-01-11T11:06:06.048Z,37.43
2018-01-11T11:08:34.168Z,48.57
2018-01-11T11:11:03.109Z,103.30
2018-01-11T11:13:31.266Z,163.73
2018-01-11T11:15:59.413Z,48.10
2018-01-11T11:18:27.553Z,52.00
2018-01-11T11:20:55.714Z,101.30
2018-01-11T11:23:23.872Z,91.80
2018-01-11T11:25:52.047Z,40.70
2018-01-11T11:28:20.222Z,31.70
2018-01-11T11:30:48.356Z,24.80
2018-01-11T11:33:16.512Z,26.13
2018-01-11T11:35:44.652Z,24.10
2018-01-11T11:38:13.570Z,23.73
2018-01-11T11:40:41.693Z,19.37
2018-01-11T11:43:09.850Z,20.13
2018-01-11T11:45:37.986Z,20.07
2018-01-11T11:48:06.143Z,22.10
2018-01-11T11:50:36.060Z,24.83
2018-01-11T11:53:04.210Z,21.50
2018-01-11T11:55:33.121Z,20.00
2018-01-11T11:58:02.692Z,18.67
2018-01-11T12:00:30.833Z,21.77
2018-01-11T12:02:58.965Z,20.00
2018-01-11T12:05:27.177Z,22.70
2018-01-11T12:07:55.307Z,17.60
2018-01-11T12:10:24.393Z,28.17
2018-01-11T12:12:52.545Z,20.47
2018-01-11T12:15:20.703Z,20.57
2018-01-11T12:17:48.829Z,19.70
2018-01-11T12:20:17.748Z,18.17
2018-01-11T12:22:46.647Z,19.63
2018-01-11T12:25:15.584Z,16.13
2018-01-11T12:27:43.744Z,15.93
2018-01-11T12:30:13.405Z,14.57
2018-01-11T12:32:42.375Z,19.13
2018-01-11T12:35:10.508Z,18.07
2018-01-11T12:37:38.668Z,17.20
2018-01-11T12:40:06.808Z,12.83
2018-01-11T12:42:34.966Z,15.63
2018-01-11T12:45:04.494Z,16.13
2018-01-11T12:47:32.638Z,15.20
2018-01-11T12:50:00.769Z,19.63
2018-01-11T12:52:28.940Z,23.67
2018-01-11T12:54:57.084Z,19.00
2018-01-11T12:57:25.225Z,20.30
2018-01-11T12:59:53.360Z,19.17
2018-01-11T13:02:21.505Z,25.57
2018-01-11T13:04:49.661Z,18.70
2018-01-11T13:07:17.799Z,25.47
2018-01-11T13:09:46.717Z,18.40
2018-01-11T13:12:15.647Z,16.97
2018-01-11T13:14:43.796Z,26.23
2018-01-11T13:17:12.734Z,21.90
2018-01-11T13:19:40.886Z,20.90
2018-01-11T13:22:09.781Z,16.53
2018-01-11T13:24:37.975Z,19.80
2018-01-11T13:27:06.865Z,21.80
2018-01-11T13:29:35.002Z,22.43
2018-01-11T13:32:03.154Z,25.17
2018-01-11T13:34:32.062Z,26.50
2018-01-11T13:37:01.055Z,33.33
2018-01-11T13:39:29.967Z,50.37
2018-01-11T13:41:58.895Z,39.40
2018-01-11T13:44:27.025Z,34.67
2018-01-11T13:46:55.198Z,33.97
2018-01-11T13:49:23.364Z,20.70
2018-01-11T13:51:51.518Z,17.83
2018-01-11T13:54:20.421Z,15.13
2018-01-11T13:56:49.358Z,24.80
2018-01-11T13:59:17.552Z,30.90
2018-01-11T14:01:45.702Z,31.40
2018-01-11T14:04:14.661Z,21.67
2018-01-11T14:06:42.753Z,25.07
2018-01-11T14:09:12.692Z,33.73
2018-01-11T14:11:40.842Z,23.97
2018-01-11T14:14:09.737Z,28.93
2018-01-11T14:16:40.027Z,25.03
2018-01-11T14:19:08.181Z,30.83
2018-01-11T14:21:36.312Z,20.97
2018-01-11T14:24:05.234Z,22.10
2018-01-11T14:26:33.356Z,21.17
2018-01-11T14:29:01.536Z,21.23
2018-01-11T14:31:29.673Z,17.63
2018-01-11T14:33:59.293Z,20.90
2018-01-11T14:36:28.189Z,19.70
2018-01-11T14:38:57.114Z,18.27
2018-01-11T14:41:26.040Z,17.93
2018-01-11T14:43:54.201Z,19.93
2018-01-11T14:46:23.101Z,21.13
2018-01-11T14:48:52.025Z,19.43
2018-01-11T14:51:20.958Z,15.73
2018-01-11T14:53:49.089Z,16.60
2018-01-11T14:56:18.005Z,18.90
2018-01-11T14:58:46.169Z,20.90
2018-01-11T15:01:15.092Z,22.83
2018-01-11T15:03:44.017Z,22.20
2018-01-11T15:06:12.172Z,24.23
2018-01-11T15:08:40.296Z,20.43
2018-01-11T15:11:08.466Z,21.77
2018-01-11T15:13:37.421Z,21.50
2018-01-11T15:16:05.559Z,20.27
2018-01-11T15:18:33.725Z,26.90
2018-01-11T15:21:02.632Z,26.07
2018-01-11T15:23:31.540Z,20.00
2018-01-11T15:26:00.472Z,21.20
2018-01-11T15:28:28.604Z,25.20
2018-01-11T15:30:56.784Z,25.77
2018-01-11T15:33:24.919Z,25.03
2018-01-11T15:35:53.573Z,22.53
2018-01-11T15:38:21.778Z,25.30
2018-01-11T15:40:49.920Z,21.23
2018-01-11T15:43:18.843Z,26.73
2018-01-11T15:45:46.997Z,27.83
2018-01-11T15:48:15.163Z,26.73
2018-01-11T15:50:44.872Z,29.27
2018-01-11T15:53:13.045Z,25.93
2018-01-11T15:55:42.089Z,28.13
2018-01-11T15:58:10.232Z,22.17
2018-01-11T16:00:39.146Z,23.77
2018-01-11T16:03:08.048Z,25.07
2018-01-11T16:05:36.970Z,24.30
2018-01-11T16:08:05.100Z,26.90
2018-01-11T16:10:33.269Z,20.20
2018-01-11T16:13:01.405Z,28.40
2018-01-11T16:15:30.319Z,21.30
2018-01-11T16:17:58.470Z,24.30
2018-01-11T16:20:26.615Z,17.50
2018-01-11T16:22:54.786Z,18.80
2018-01-11T16:25:23.688Z,23.70
2018-01-11T16:27:51.843Z,19.83
2018-01-11T16:30:19.988Z,23.10
2018-01-11T16:32:48.146Z,20.10
2018-01-11T16:35:17.059Z,20.00
2018-01-11T16:37:46.035Z,20.80
2018-01-11T16:40:14.169Z,51.20
2018-01-11T16:42:42.313Z,53.60
2018-01-11T16:45:11.216Z,61.73
2018-01-11T16:47:40.135Z,33.43
2018-01-11T16:50:09.068Z,15.30
2018-01-11T16:52:37.206Z,16.77
2018-01-11T16:55:05.377Z,18.30
2018-01-11T16:57:33.541Z,16.67
2018-01-11T17:00:01.683Z,19.73
2018-01-11T17:02:30.612Z,24.37
2018-01-11T17:04:58.755Z,15.67
2018-01-11T17:07:27.690Z,19.73
2018-01-11T17:09:55.858Z,16.43
2018-01-11T17:12:24.753Z,14.70
2018-01-11T17:14:53.676Z,21.13
2018-01-11T17:17:21.816Z,19.70
2018-01-11T17:19:50.730Z,17.07
2018-01-11T17:22:18.865Z,19.33
2018-01-11T17:24:47.035Z,20.90
2018-01-11T17:27:15.190Z,19.30
2018-01-11T17:29:43.324Z,17.63
2018-01-11T17:32:11.490Z,21.33
2018-01-11T17:34:40.812Z,24.03
2018-01-11T17:37:09.734Z,22.93
2018-01-11T17:39:38.601Z,20.23
2018-01-11T17:42:07.544Z,19.60
2018-01-11T17:44:35.698Z,20.63
2018-01-11T17:47:04.639Z,17.90
2018-01-11T17:49:33.533Z,31.37
2018-01-11T17:52:01.701Z,28.07
2018-01-11T17:54:30.632Z,25.40
2018-01-11T17:56:59.552Z,34.40
2018-01-11T17:59:27.694Z,28.93
2018-01-11T18:01:55.845Z,21.93
2018-01-11T18:04:24.033Z,29.50
2018-01-11T18:06:52.177Z,47.83
2018-01-11T18:09:20.357Z,38.13
2018-01-11T18:11:48.505Z,37.60
2018-01-11T18:14:17.446Z,37.80
2018-01-11T18:16:45.596Z,40.93
2018-01-11T18:19:13.756Z,33.63
2018-01-11T18:21:41.908Z,34.60
2018-01-11T18:24:10.862Z,31.60
2018-01-11T18:26:40.722Z,26.87
2018-01-11T18:29:08.908Z,28.00
2018-01-11T18:31:37.833Z,26.37
2018-01-11T18:34:05.965Z,28.23
2018-01-11T18:36:34.125Z,27.47
2018-01-11T18:39:04.102Z,22.13
2018-01-11T18:41:33.043Z,31.20
2018-01-11T18:44:01.178Z,30.60
2018-01-11T18:46:30.109Z,36.20
2018-01-11T18:48:59.037Z,37.17
2018-01-11T18:51:27.166Z,35.70
2018-01-11T18:53:55.311Z,44.73
2018-01-11T18:56:24.407Z,43.90
2018-01-11T18:58:52.540Z,42.07
2018-01-11T19:01:20.692Z,43.07
2018-01-11T19:03:48.840Z,40.70
2018-01-11T19:06:17.011Z,36.60
2018-01-11T19:08:45.170Z,37.10
2018-01-11T19:11:13.309Z,38.70
2018-01-11T19:13:41.455Z,41.77
2018-01-11T19:16:09.594Z,39.17
2018-01-11T19:18:37.719Z,41.67
2018-01-11T19:21:05.869Z,37.07
2018-01-11T19:23:34.032Z,37.10
2018-01-11T19:26:02.220Z,38.57
2018-01-11T19:28:30.374Z,42.47
2018-01-11T19:30:58.532Z,44.53
2018-01-11T19:33:26.674Z,42.20
2018-01-11T19:35:55.594Z,44.13
2018-01-11T19:38:23.739Z,42.77
2018-01-11T19:40:51.911Z,45.67
2018-01-11T19:43:20.050Z,41.13
2018-01-11T19:45:48.236Z,44.17
2018-01-11T19:48:17.141Z,49.23
2018-01-11T19:50:45.330Z,46.10
2018-01-11T19:53:13.497Z,40.77
2018-01-11T19:55:42.436Z,44.53
2018-01-11T19:58:10.613Z,41.73
2018-01-11T20:00:38.762Z,43.57
2018-01-11T20:03:07.709Z,43.43
2018-01-11T20:05:36.368Z,53.60
2018-01-11T20:08:05.290Z,51.87
2018-01-11T20:10:33.465Z,47.80
2018-01-11T20:13:01.663Z,45.23
2018-01-11T20:15:30.591Z,45.40
2018-01-11T20:18:00.414Z,47.43
2018-01-11T20:20:28.582Z,41.93
2018-01-11T20:22:57.539Z,40.10
2018-01-11T20:25:26.501Z,51.50
2018-01-11T20:27:54.656Z,46.13
2018-01-11T20:30:23.600Z,43.57
2018-01-11T20:32:51.792Z,43.23
2018-01-11T20:35:19.940Z,46.83
2018-01-11T20:37:48.867Z,42.77
2018-01-11T20:40:17.581Z,43.90
2018-01-11T20:42:45.828Z,39.37
2018-01-11T20:45:15.877Z,43.20
2018-01-11T20:47:44.076Z,39.47
2018-01-11T20:50:12.252Z,39.33
2018-01-11T20:52:41.136Z,45.87
2018-01-11T20:55:10.088Z,45.57
2018-01-11T20:57:38.234Z,43.70
2018-01-11T21:02:43.031Z,40.20
2018-01-11T21:05:11.185Z,44.07
2018-01-11T21:07:40.092Z,47.80
2018-01-11T21:10:09.030Z,51.57
2018-01-11T21:12:38.141Z,46.23
2018-01-11T21:15:07.092Z,47.80
2018-01-11T21:17:35.245Z,45.33
2018-01-11T21:20:03.430Z,45.87
2018-01-11T21:22:32.320Z,44.83
2018-01-11T21:25:00.484Z,52.73
2018-01-11T21:27:28.640Z,46.87
2018-01-11T21:29:56.824Z,49.77
2018-01-11T21:32:24.937Z,50.80
2018-01-11T21:34:53.856Z,50.30
2018-01-11T21:37:22.016Z,47.27
2018-01-11T21:39:50.928Z,49.57
2018-01-11T21:42:19.860Z,51.33
2018-01-11T21:44:48.014Z,51.87
2018-01-11T21:47:16.938Z,51.13
2018-01-11T21:49:45.072Z,50.93
2018-01-11T21:52:13.976Z,51.50
2018-01-11T21:54:42.118Z,50.53
2018-01-11T21:57:10.268Z,50.00
2018-01-11T21:59:38.456Z,49.20
2018-01-11T22:02:07.368Z,47.30
2018-01-11T22:04:35.486Z,47.07
2018-01-11T22:07:03.670Z,48.53
2018-01-11T22:09:31.821Z,44.53
2018-01-11T22:12:00.724Z,42.90
2018-01-11T22:14:28.887Z,45.53
2018-01-11T22:16:57.020Z,45.20
2018-01-11T22:19:25.193Z,50.97
2018-01-11T22:21:53.322Z,50.63
2018-01-11T22:24:21.468Z,47.10
2018-01-11T22:26:50.362Z,43.03
2018-01-11T22:29:19.291Z,45.67
2018-01-11T22:31:48.174Z,49.80
2018-01-11T22:34:16.314Z,54.67
2018-01-11T22:36:45.149Z,45.30
2018-01-11T22:39:13.284Z,47.07
2018-01-11T22:41:41.458Z,48.20
2018-01-11T22:44:09.607Z,49.70
2018-01-11T22:46:37.753Z,46.10
2018-01-11T22:49:05.937Z,50.83
2018-01-11T22:51:34.093Z,44.53
2018-01-11T22:54:02.225Z,46.97
2018-01-11T22:56:30.369Z,48.00
2018-01-11T22:58:58.524Z,49.30
2018-01-11T23:01:26.674Z,44.20
2018-01-11T23:03:54.828Z,55.57
2018-01-11T23:06:23.744Z,51.50
2018-01-11T23:08:52.635Z,46.77
2018-01-11T23:11:26.463Z,48.47
2018-01-11T23:13:55.364Z,44.63
2018-01-11T23:16:23.536Z,52.93
2018-01-11T23:18:52.440Z,42.30
2018-01-11T23:21:20.594Z,54.07
2018-01-11T23:23:48.755Z,50.60
2018-01-11T23:26:16.881Z,44.10
2018-01-11T23:28:45.797Z,50.33
2018-01-11T23:31:14.693Z,49.60
2018-01-11T23:33:43.598Z,47.93
2018-01-11T23:36:12.487Z,48.87
2018-01-11T23:38:40.632Z,51.67
2018-01-11T23:41:08.776Z,46.97
2018-01-11T23:43:38.486Z,49.07
2018-01-11T23:46:06.605Z,43.20
2018-01-11T23:48:34.740Z,47.63
2018-01-11T23:51:02.905Z,51.83
2018-01-11T23:53:31.057Z,45.80
2018-01-11T23:55:59.209Z,47.03
2018-01-11T23:58:27.344Z,49.77
